sensor_id;sensor_type;location;lat;lon;timestamp;P1;durP1;ratioP1;P2;durP2;ratioP2
55497;SDS011;41357;52.806;18.268;2023-02-01T00:00:48;10.75;;;1.75;;
55497;SDS011;41357;52.806;18.268;2023-02-01T00:03:14;6.75;;;0.90;;
55497;SDS011;41357;52.806;18.268;2023-02-01T00:05:40;6.20;;;1.23;;
55497;SDS011;41357;52.806;18.268;2023-02-01T00:08:06;4.85;;;1.60;;
55497;SDS011;41357;52.806;18.268;2023-02-01T00:10:32;7.38;;;0.98;;
55497;SDS011;41357;52.806;18.268;2023-02-01T00:12:58;1.95;;;0.88;;
55497;SDS011;41357;52.806;18.268;2023-02-01T00:15:24;6.93;;;1.35;;
55497;SDS011;41357;52.806;18.268;2023-02-01T00:17:54;5.60;;;1.27;;
55497;SDS011;41357;52.806;18.268;2023-02-01T00:20:20;18.70;;;1.95;;
55497;SDS011;41357;52.806;18.268;2023-02-01T00:22:46;8.30;;;1.13;;
55497;SDS011;41357;52.806;18.268;2023-02-01T00:25:12;6.72;;;1.10;;
55497;SDS011;41357;52.806;18.268;2023-02-01T00:27:38;7.85;;;0.98;;
55497;SDS011;41357;52.806;18.268;2023-02-01T00:30:04;9.85;;;1.77;;
55497;SDS011;41357;52.806;18.268;2023-02-01T00:32:31;10.13;;;1.52;;
55497;SDS011;41357;52.806;18.268;2023-02-01T00:34:57;9.15;;;1.45;;
55497;SDS011;41357;52.806;18.268;2023-02-01T00:37:23;4.80;;;0.55;;
55497;SDS011;41357;52.806;18.268;2023-02-01T00:39:49;7.05;;;0.77;;
55497;SDS011;41357;52.806;18.268;2023-02-01T00:42:15;5.05;;;1.98;;
55497;SDS011;41357;52.806;18.268;2023-02-01T00:44:41;4.05;;;0.73;;
55497;SDS011;41357;52.806;18.268;2023-02-01T00:47:07;10.77;;;1.17;;
55497;SDS011;41357;52.806;18.268;2023-02-01T00:49:33;3.92;;;1.20;;
55497;SDS011;41357;52.806;18.268;2023-02-01T00:52:00;6.97;;;1.00;;
55497;SDS011;41357;52.806;18.268;2023-02-01T00:54:26;3.45;;;1.00;;
55497;SDS011;41357;52.806;18.268;2023-02-01T00:56:52;4.95;;;1.08;;
55497;SDS011;41357;52.806;18.268;2023-02-01T00:59:18;9.25;;;1.55;;
55497;SDS011;41357;52.806;18.268;2023-02-01T01:01:44;10.55;;;1.27;;
55497;SDS011;41357;52.806;18.268;2023-02-01T01:04:10;9.18;;;2.13;;
55497;SDS011;41357;52.806;18.268;2023-02-01T01:06:36;1.15;;;0.40;;
55497;SDS011;41357;52.806;18.268;2023-02-01T01:09:03;5.32;;;1.98;;
55497;SDS011;41357;52.806;18.268;2023-02-01T01:11:31;3.08;;;1.13;;
55497;SDS011;41357;52.806;18.268;2023-02-01T01:13:58;6.40;;;1.45;;
55497;SDS011;41357;52.806;18.268;2023-02-01T01:16:25;9.73;;;2.45;;
55497;SDS011;41357;52.806;18.268;2023-02-01T01:18:51;9.30;;;1.63;;
55497;SDS011;41357;52.806;18.268;2023-02-01T01:21:17;6.90;;;0.68;;
55497;SDS011;41357;52.806;18.268;2023-02-01T01:23:44;8.18;;;1.02;;
55497;SDS011;41357;52.806;18.268;2023-02-01T01:26:14;10.15;;;1.15;;
55497;SDS011;41357;52.806;18.268;2023-02-01T01:28:40;3.47;;;1.00;;
55497;SDS011;41357;52.806;18.268;2023-02-01T01:31:10;4.30;;;1.35;;
55497;SDS011;41357;52.806;18.268;2023-02-01T01:33:36;6.88;;;1.27;;
55497;SDS011;41357;52.806;18.268;2023-02-01T01:36:09;8.63;;;1.38;;
55497;SDS011;41357;52.806;18.268;2023-02-01T01:38:36;15.02;;;0.70;;
55497;SDS011;41357;52.806;18.268;2023-02-01T01:41:02;11.80;;;2.20;;
55497;SDS011;41357;52.806;18.268;2023-02-01T01:46:18;5.57;;;0.98;;
55497;SDS011;41357;52.806;18.268;2023-02-01T01:48:44;3.33;;;1.00;;
55497;SDS011;41357;52.806;18.268;2023-02-01T01:51:11;7.20;;;0.88;;
55497;SDS011;41357;52.806;18.268;2023-02-01T01:54:23;4.75;;;0.90;;
55497;SDS011;41357;52.806;18.268;2023-02-01T01:56:30;9.15;;;1.50;;
55497;SDS011;41357;52.806;18.268;2023-02-01T01:58:57;7.53;;;1.58;;
55497;SDS011;41357;52.806;18.268;2023-02-01T02:01:23;3.00;;;0.82;;
55497;SDS011;41357;52.806;18.268;2023-02-01T02:03:49;11.90;;;1.17;;
55497;SDS011;41357;52.806;18.268;2023-02-01T02:06:24;2.00;;;0.40;;
55497;SDS011;41357;52.806;18.268;2023-02-01T02:08:52;3.97;;;1.27;;
55497;SDS011;41357;52.806;18.268;2023-02-01T02:11:18;7.60;;;1.05;;
55497;SDS011;41357;52.806;18.268;2023-02-01T02:13:46;5.15;;;0.73;;
55497;SDS011;41357;52.806;18.268;2023-02-01T02:16:18;6.30;;;1.30;;
55497;SDS011;41357;52.806;18.268;2023-02-01T02:39:56;5.00;;;1.30;;
55497;SDS011;41357;52.806;18.268;2023-02-01T02:45:28;5.55;;;0.95;;
55497;SDS011;41357;52.806;18.268;2023-02-01T02:56:44;9.68;;;1.77;;
55497;SDS011;41357;52.806;18.268;2023-02-01T02:59:29;12.05;;;2.05;;
55497;SDS011;41357;52.806;18.268;2023-02-01T03:02:15;15.32;;;2.20;;
55497;SDS011;41357;52.806;18.268;2023-02-01T03:05:00;4.38;;;0.80;;
55497;SDS011;41357;52.806;18.268;2023-02-01T03:10:16;17.15;;;1.45;;
55497;SDS011;41357;52.806;18.268;2023-02-01T03:12:43;7.65;;;1.15;;
55497;SDS011;41357;52.806;18.268;2023-02-01T03:15:26;7.65;;;1.70;;
55497;SDS011;41357;52.806;18.268;2023-02-01T03:17:57;11.60;;;1.60;;
55497;SDS011;41357;52.806;18.268;2023-02-01T03:20:24;4.07;;;1.20;;
55497;SDS011;41357;52.806;18.268;2023-02-01T03:22:51;10.20;;;2.03;;
55497;SDS011;41357;52.806;18.268;2023-02-01T03:25:19;7.72;;;1.38;;
55497;SDS011;41357;52.806;18.268;2023-02-01T03:30:35;10.35;;;1.13;;
55497;SDS011;41357;52.806;18.268;2023-02-01T03:33:03;11.65;;;1.48;;
55497;SDS011;41357;52.806;18.268;2023-02-01T03:38:02;13.75;;;1.48;;
55497;SDS011;41357;52.806;18.268;2023-02-01T03:40:30;14.13;;;1.83;;
55497;SDS011;41357;52.806;18.268;2023-02-01T03:42:59;6.43;;;1.75;;
55497;SDS011;41357;52.806;18.268;2023-02-01T03:45:27;16.95;;;2.15;;
55497;SDS011;41357;52.806;18.268;2023-02-01T03:47:55;11.68;;;1.13;;
55497;SDS011;41357;52.806;18.268;2023-02-01T03:50:22;5.65;;;1.20;;
55497;SDS011;41357;52.806;18.268;2023-02-01T03:52:54;10.15;;;1.67;;
55497;SDS011;41357;52.806;18.268;2023-02-01T03:55:22;14.70;;;2.03;;
55497;SDS011;41357;52.806;18.268;2023-02-01T03:58:10;2.83;;;0.43;;
55497;SDS011;41357;52.806;18.268;2023-02-01T04:00:38;2.50;;;0.70;;
55497;SDS011;41357;52.806;18.268;2023-02-01T04:03:05;7.07;;;1.30;;
55497;SDS011;41357;52.806;18.268;2023-02-01T04:05:31;4.28;;;1.58;;
55497;SDS011;41357;52.806;18.268;2023-02-01T04:07:57;9.30;;;2.28;;
55497;SDS011;41357;52.806;18.268;2023-02-01T04:10:24;9.40;;;1.88;;
55497;SDS011;41357;52.806;18.268;2023-02-01T04:12:50;4.88;;;0.98;;
55497;SDS011;41357;52.806;18.268;2023-02-01T04:15:16;4.25;;;1.23;;
55497;SDS011;41357;52.806;18.268;2023-02-01T04:17:42;8.82;;;1.92;;
55497;SDS011;41357;52.806;18.268;2023-02-01T04:20:08;4.20;;;1.05;;
55497;SDS011;41357;52.806;18.268;2023-02-01T04:22:35;11.07;;;1.70;;
55497;SDS011;41357;52.806;18.268;2023-02-01T04:25:01;11.63;;;1.50;;
55497;SDS011;41357;52.806;18.268;2023-02-01T04:27:27;9.38;;;1.80;;
55497;SDS011;41357;52.806;18.268;2023-02-01T04:29:53;9.20;;;2.03;;
55497;SDS011;41357;52.806;18.268;2023-02-01T04:32:20;9.80;;;1.60;;
55497;SDS011;41357;52.806;18.268;2023-02-01T04:34:46;10.70;;;1.38;;
55497;SDS011;41357;52.806;18.268;2023-02-01T04:37:12;11.70;;;2.10;;
55497;SDS011;41357;52.806;18.268;2023-02-01T04:39:38;13.13;;;1.70;;
55497;SDS011;41357;52.806;18.268;2023-02-01T04:42:05;4.00;;;0.90;;
55497;SDS011;41357;52.806;18.268;2023-02-01T04:44:31;6.70;;;2.10;;
55497;SDS011;41357;52.806;18.268;2023-02-01T04:46:57;4.95;;;1.15;;
55497;SDS011;41357;52.806;18.268;2023-02-01T04:49:23;2.78;;;1.10;;
55497;SDS011;41357;52.806;18.268;2023-02-01T04:51:51;11.95;;;1.77;;
55497;SDS011;41357;52.806;18.268;2023-02-01T04:54:17;11.82;;;2.10;;
55497;SDS011;41357;52.806;18.268;2023-02-01T04:56:43;5.93;;;1.83;;
55497;SDS011;41357;52.806;18.268;2023-02-01T04:59:10;9.50;;;1.67;;
55497;SDS011;41357;52.806;18.268;2023-02-01T05:01:36;9.10;;;1.70;;
55497;SDS011;41357;52.806;18.268;2023-02-01T05:04:03;6.47;;;1.40;;
55497;SDS011;41357;52.806;18.268;2023-02-01T05:06:29;10.10;;;1.63;;
55497;SDS011;41357;52.806;18.268;2023-02-01T05:08:55;4.72;;;1.13;;
55497;SDS011;41357;52.806;18.268;2023-02-01T05:11:21;4.03;;;1.40;;
55497;SDS011;41357;52.806;18.268;2023-02-01T05:14:05;5.18;;;1.98;;
55497;SDS011;41357;52.806;18.268;2023-02-01T05:16:32;8.85;;;1.27;;
55497;SDS011;41357;52.806;18.268;2023-02-01T05:18:58;4.97;;;1.55;;
55497;SDS011;41357;52.806;18.268;2023-02-01T05:21:24;13.13;;;2.00;;
55497;SDS011;41357;52.806;18.268;2023-02-01T05:23:50;7.57;;;1.33;;
55497;SDS011;41357;52.806;18.268;2023-02-01T05:26:36;12.52;;;1.90;;
55497;SDS011;41357;52.806;18.268;2023-02-01T05:29:02;10.93;;;1.55;;
55497;SDS011;41357;52.806;18.268;2023-02-01T05:31:29;6.00;;;1.42;;
55497;SDS011;41357;52.806;18.268;2023-02-01T05:33:55;18.15;;;2.53;;
55497;SDS011;41357;52.806;18.268;2023-02-01T05:36:21;12.02;;;2.33;;
55497;SDS011;41357;52.806;18.268;2023-02-01T05:38:47;11.95;;;2.30;;
55497;SDS011;41357;52.806;18.268;2023-02-01T05:41:13;7.85;;;1.75;;
55497;SDS011;41357;52.806;18.268;2023-02-01T05:43:39;17.02;;;1.83;;
55497;SDS011;41357;52.806;18.268;2023-02-01T05:46:05;15.40;;;1.98;;
55497;SDS011;41357;52.806;18.268;2023-02-01T05:48:31;8.63;;;2.30;;
55497;SDS011;41357;52.806;18.268;2023-02-01T05:50:57;12.63;;;2.72;;
55497;SDS011;41357;52.806;18.268;2023-02-01T05:53:23;19.92;;;2.70;;
55497;SDS011;41357;52.806;18.268;2023-02-01T05:55:49;13.73;;;1.55;;
55497;SDS011;41357;52.806;18.268;2023-02-01T05:58:15;10.45;;;2.15;;
55497;SDS011;41357;52.806;18.268;2023-02-01T06:00:41;11.65;;;2.60;;
55497;SDS011;41357;52.806;18.268;2023-02-01T06:03:08;10.73;;;1.88;;
55497;SDS011;41357;52.806;18.268;2023-02-01T06:05:34;8.18;;;1.20;;
55497;SDS011;41357;52.806;18.268;2023-02-01T06:08:00;10.27;;;2.17;;
55497;SDS011;41357;52.806;18.268;2023-02-01T06:10:26;11.82;;;1.98;;
55497;SDS011;41357;52.806;18.268;2023-02-01T06:12:52;9.52;;;2.25;;
55497;SDS011;41357;52.806;18.268;2023-02-01T06:15:18;13.60;;;3.08;;
55497;SDS011;41357;52.806;18.268;2023-02-01T06:17:44;10.60;;;1.65;;
55497;SDS011;41357;52.806;18.268;2023-02-01T06:20:11;4.15;;;1.30;;
55497;SDS011;41357;52.806;18.268;2023-02-01T06:22:38;21.52;;;2.50;;
55497;SDS011;41357;52.806;18.268;2023-02-01T06:25:04;12.23;;;2.30;;
55497;SDS011;41357;52.806;18.268;2023-02-01T06:27:31;3.28;;;1.00;;
55497;SDS011;41357;52.806;18.268;2023-02-01T06:29:58;4.20;;;1.38;;
55497;SDS011;41357;52.806;18.268;2023-02-01T06:32:24;9.93;;;2.35;;
55497;SDS011;41357;52.806;18.268;2023-02-01T06:34:50;2.88;;;0.90;;
55497;SDS011;41357;52.806;18.268;2023-02-01T06:37:18;15.00;;;2.00;;
55497;SDS011;41357;52.806;18.268;2023-02-01T06:39:44;8.30;;;1.55;;
55497;SDS011;41357;52.806;18.268;2023-02-01T06:42:10;7.72;;;1.85;;
55497;SDS011;41357;52.806;18.268;2023-02-01T06:44:36;14.10;;;2.65;;
55497;SDS011;41357;52.806;18.268;2023-02-01T06:47:03;13.52;;;2.13;;
55497;SDS011;41357;52.806;18.268;2023-02-01T06:49:29;14.07;;;3.30;;
55497;SDS011;41357;52.806;18.268;2023-02-01T06:51:55;8.63;;;1.75;;
55497;SDS011;41357;52.806;18.268;2023-02-01T06:54:21;16.38;;;3.40;;
55497;SDS011;41357;52.806;18.268;2023-02-01T06:56:47;12.65;;;2.15;;
55497;SDS011;41357;52.806;18.268;2023-02-01T06:59:13;8.80;;;2.80;;
55497;SDS011;41357;52.806;18.268;2023-02-01T07:01:40;10.05;;;2.42;;
55497;SDS011;41357;52.806;18.268;2023-02-01T07:04:06;14.13;;;2.03;;
55497;SDS011;41357;52.806;18.268;2023-02-01T07:06:32;5.32;;;1.77;;
55497;SDS011;41357;52.806;18.268;2023-02-01T07:08:58;11.27;;;1.95;;
55497;SDS011;41357;52.806;18.268;2023-02-01T07:11:25;9.18;;;2.00;;
55497;SDS011;41357;52.806;18.268;2023-02-01T07:13:53;8.20;;;1.63;;
55497;SDS011;41357;52.806;18.268;2023-02-01T07:16:19;5.15;;;1.73;;
55497;SDS011;41357;52.806;18.268;2023-02-01T07:18:46;2.47;;;1.15;;
55497;SDS011;41357;52.806;18.268;2023-02-01T07:21:12;7.47;;;1.88;;
55497;SDS011;41357;52.806;18.268;2023-02-01T07:23:38;3.42;;;1.40;;
55497;SDS011;41357;52.806;18.268;2023-02-01T07:26:06;7.40;;;3.13;;
55497;SDS011;41357;52.806;18.268;2023-02-01T07:28:34;7.28;;;2.97;;
55497;SDS011;41357;52.806;18.268;2023-02-01T07:31:07;14.77;;;3.00;;
55497;SDS011;41357;52.806;18.268;2023-02-01T07:33:34;8.52;;;2.60;;
55497;SDS011;41357;52.806;18.268;2023-02-01T07:36:00;12.18;;;2.55;;
55497;SDS011;41357;52.806;18.268;2023-02-01T07:38:27;8.40;;;2.17;;
55497;SDS011;41357;52.806;18.268;2023-02-01T07:40:57;10.15;;;2.40;;
55497;SDS011;41357;52.806;18.268;2023-02-01T07:43:23;11.45;;;1.63;;
55497;SDS011;41357;52.806;18.268;2023-02-01T07:45:53;8.55;;;2.05;;
55497;SDS011;41357;52.806;18.268;2023-02-01T07:48:19;8.07;;;1.90;;
55497;SDS011;41357;52.806;18.268;2023-02-01T07:50:45;10.23;;;1.95;;
55497;SDS011;41357;52.806;18.268;2023-02-01T07:53:12;8.60;;;3.88;;
55497;SDS011;41357;52.806;18.268;2023-02-01T07:55:38;6.97;;;1.92;;
55497;SDS011;41357;52.806;18.268;2023-02-01T07:58:04;4.35;;;1.58;;
55497;SDS011;41357;52.806;18.268;2023-02-01T08:00:30;10.35;;;3.65;;
55497;SDS011;41357;52.806;18.268;2023-02-01T08:03:15;14.93;;;3.70;;
55497;SDS011;41357;52.806;18.268;2023-02-01T08:05:41;11.40;;;2.35;;
55497;SDS011;41357;52.806;18.268;2023-02-01T08:08:07;8.85;;;1.58;;
55497;SDS011;41357;52.806;18.268;2023-02-01T08:10:34;13.68;;;1.70;;
55497;SDS011;41357;52.806;18.268;2023-02-01T08:13:00;8.10;;;1.38;;
55497;SDS011;41357;52.806;18.268;2023-02-01T08:15:28;4.95;;;2.05;;
55497;SDS011;41357;52.806;18.268;2023-02-01T08:17:54;12.60;;;3.65;;
55497;SDS011;41357;52.806;18.268;2023-02-01T08:20:20;4.30;;;1.25;;
55497;SDS011;41357;52.806;18.268;2023-02-01T08:22:48;6.75;;;2.17;;
55497;SDS011;41357;52.806;18.268;2023-02-01T08:25:14;10.30;;;2.38;;
55497;SDS011;41357;52.806;18.268;2023-02-01T08:27:40;10.35;;;2.10;;
55497;SDS011;41357;52.806;18.268;2023-02-01T08:30:06;10.38;;;2.42;;
55497;SDS011;41357;52.806;18.268;2023-02-01T08:32:33;12.90;;;1.85;;
55497;SDS011;41357;52.806;18.268;2023-02-01T08:35:00;15.27;;;2.63;;
55497;SDS011;41357;52.806;18.268;2023-02-01T08:37:26;5.05;;;1.67;;
55497;SDS011;41357;52.806;18.268;2023-02-01T08:39:52;10.93;;;1.70;;
55497;SDS011;41357;52.806;18.268;2023-02-01T08:42:19;6.45;;;2.47;;
55497;SDS011;41357;52.806;18.268;2023-02-01T08:45:03;12.90;;;2.83;;
55497;SDS011;41357;52.806;18.268;2023-02-01T08:47:30;9.65;;;2.30;;
55497;SDS011;41357;52.806;18.268;2023-02-01T08:49:56;13.50;;;2.83;;
55497;SDS011;41357;52.806;18.268;2023-02-01T08:52:22;5.10;;;1.60;;
55497;SDS011;41357;52.806;18.268;2023-02-01T08:54:48;8.30;;;2.40;;
55497;SDS011;41357;52.806;18.268;2023-02-01T08:57:15;5.20;;;2.03;;
55497;SDS011;41357;52.806;18.268;2023-02-01T08:59:41;11.32;;;3.53;;
55497;SDS011;41357;52.806;18.268;2023-02-01T09:02:11;10.38;;;2.65;;
55497;SDS011;41357;52.806;18.268;2023-02-01T09:04:38;15.10;;;3.22;;
55497;SDS011;41357;52.806;18.268;2023-02-01T09:07:04;11.00;;;2.45;;
55497;SDS011;41357;52.806;18.268;2023-02-01T09:09:30;16.27;;;3.40;;
55497;SDS011;41357;52.806;18.268;2023-02-01T09:11:56;11.00;;;2.40;;
55497;SDS011;41357;52.806;18.268;2023-02-01T09:14:22;8.02;;;2.53;;
55497;SDS011;41357;52.806;18.268;2023-02-01T09:16:48;12.43;;;2.17;;
55497;SDS011;41357;52.806;18.268;2023-02-01T09:19:14;13.77;;;2.50;;
55497;SDS011;41357;52.806;18.268;2023-02-01T09:21:40;15.38;;;2.88;;
55497;SDS011;41357;52.806;18.268;2023-02-01T09:24:08;11.63;;;2.45;;
55497;SDS011;41357;52.806;18.268;2023-02-01T09:26:34;7.25;;;1.30;;
55497;SDS011;41357;52.806;18.268;2023-02-01T09:29:01;8.93;;;1.45;;
55497;SDS011;41357;52.806;18.268;2023-02-01T09:31:28;19.98;;;3.00;;
55497;SDS011;41357;52.806;18.268;2023-02-01T09:33:54;12.85;;;3.13;;
55497;SDS011;41357;52.806;18.268;2023-02-01T09:36:20;14.73;;;4.10;;
55497;SDS011;41357;52.806;18.268;2023-02-01T09:38:48;13.85;;;3.33;;
55497;SDS011;41357;52.806;18.268;2023-02-01T09:46:35;16.13;;;4.07;;
55497;SDS011;41357;52.806;18.268;2023-02-01T09:49:02;18.50;;;5.13;;
55497;SDS011;41357;52.806;18.268;2023-02-01T09:51:41;13.13;;;3.65;;
55497;SDS011;41357;52.806;18.268;2023-02-01T09:54:13;11.35;;;3.58;;
55497;SDS011;41357;52.806;18.268;2023-02-01T10:01:36;20.80;;;4.10;;
55497;SDS011;41357;52.806;18.268;2023-02-01T10:04:04;10.65;;;3.88;;
55497;SDS011;41357;52.806;18.268;2023-02-01T10:19:24;12.00;;;3.33;;
55497;SDS011;41357;52.806;18.268;2023-02-01T10:21:58;6.70;;;2.58;;
55497;SDS011;41357;52.806;18.268;2023-02-01T10:24:28;5.78;;;1.95;;
55497;SDS011;41357;52.806;18.268;2023-02-01T10:27:01;3.72;;;1.05;;
55497;SDS011;41357;52.806;18.268;2023-02-01T10:29:32;4.95;;;1.30;;
55497;SDS011;41357;52.806;18.268;2023-02-01T10:32:00;11.68;;;2.65;;
55497;SDS011;41357;52.806;18.268;2023-02-01T10:34:31;3.78;;;1.50;;
55497;SDS011;41357;52.806;18.268;2023-02-01T10:37:04;10.32;;;2.05;;
55497;SDS011;41357;52.806;18.268;2023-02-01T10:39:34;8.27;;;2.03;;
55497;SDS011;41357;52.806;18.268;2023-02-01T10:42:01;12.25;;;1.90;;
55497;SDS011;41357;52.806;18.268;2023-02-01T10:44:28;13.85;;;2.65;;
55497;SDS011;41357;52.806;18.268;2023-02-01T10:46:56;6.57;;;2.75;;
55497;SDS011;41357;52.806;18.268;2023-02-01T10:49:29;8.88;;;2.55;;
55497;SDS011;41357;52.806;18.268;2023-02-01T10:54:37;8.57;;;2.42;;
55497;SDS011;41357;52.806;18.268;2023-02-01T10:57:11;3.80;;;1.33;;
55497;SDS011;41357;52.806;18.268;2023-02-01T11:02:19;8.68;;;2.35;;
55497;SDS011;41357;52.806;18.268;2023-02-01T11:04:46;14.60;;;3.60;;
55497;SDS011;41357;52.806;18.268;2023-02-01T11:07:24;11.45;;;2.30;;
55497;SDS011;41357;52.806;18.268;2023-02-01T11:09:52;11.18;;;2.88;;
55497;SDS011;41357;52.806;18.268;2023-02-01T11:12:22;17.80;;;4.03;;
55497;SDS011;41357;52.806;18.268;2023-02-01T11:14:49;11.13;;;3.00;;
55497;SDS011;41357;52.806;18.268;2023-02-01T11:19:51;10.95;;;2.30;;
55497;SDS011;41357;52.806;18.268;2023-02-01T11:22:21;11.63;;;3.00;;
55497;SDS011;41357;52.806;18.268;2023-02-01T11:24:47;13.55;;;3.20;;
55497;SDS011;41357;52.806;18.268;2023-02-01T11:27:15;16.23;;;3.30;;
55497;SDS011;41357;52.806;18.268;2023-02-01T11:29:43;14.25;;;3.53;;
55497;SDS011;41357;52.806;18.268;2023-02-01T11:32:10;18.55;;;2.53;;
55497;SDS011;41357;52.806;18.268;2023-02-01T11:37:13;16.42;;;3.53;;
55497;SDS011;41357;52.806;18.268;2023-02-01T11:39:40;8.10;;;1.90;;
55497;SDS011;41357;52.806;18.268;2023-02-01T11:42:14;11.20;;;2.22;;
55497;SDS011;41357;52.806;18.268;2023-02-01T11:44:41;12.02;;;2.67;;
55497;SDS011;41357;52.806;18.268;2023-02-01T11:47:27;11.80;;;2.85;;
55497;SDS011;41357;52.806;18.268;2023-02-01T11:50:00;9.68;;;3.08;;
55497;SDS011;41357;52.806;18.268;2023-02-01T11:52:34;7.32;;;2.38;;
55497;SDS011;41357;52.806;18.268;2023-02-01T12:15:46;6.95;;;1.98;;
55497;SDS011;41357;52.806;18.268;2023-02-01T12:18:18;5.00;;;2.08;;
55497;SDS011;41357;52.806;18.268;2023-02-01T12:29:03;4.90;;;1.60;;
55497;SDS011;41357;52.806;18.268;2023-02-01T12:39:36;6.88;;;1.67;;
55497;SDS011;41357;52.806;18.268;2023-02-01T12:47:14;4.38;;;2.30;;
55497;SDS011;41357;52.806;18.268;2023-02-01T12:52:58;11.57;;;3.30;;
55497;SDS011;41357;52.806;18.268;2023-02-01T12:57:46;4.43;;;2.33;;
55497;SDS011;41357;52.806;18.268;2023-02-01T13:02:55;6.05;;;1.90;;
55497;SDS011;41357;52.806;18.268;2023-02-01T13:05:24;5.13;;;1.88;;
55497;SDS011;41357;52.806;18.268;2023-02-01T13:07:59;9.00;;;2.72;;
55497;SDS011;41357;52.806;18.268;2023-02-01T13:12:54;4.53;;;2.03;;
55497;SDS011;41357;52.806;18.268;2023-02-01T13:17:49;6.10;;;2.72;;
55497;SDS011;41357;52.806;18.268;2023-02-01T13:23:02;7.13;;;3.60;;
55497;SDS011;41357;52.806;18.268;2023-02-01T13:27:56;5.15;;;1.88;;
55497;SDS011;41357;52.806;18.268;2023-02-01T13:30:26;6.78;;;2.05;;
55497;SDS011;41357;52.806;18.268;2023-02-01T13:33:21;6.43;;;2.63;;
55497;SDS011;41357;52.806;18.268;2023-02-01T13:43:50;6.35;;;1.58;;
55497;SDS011;41357;52.806;18.268;2023-02-01T13:46:17;9.63;;;2.22;;
55497;SDS011;41357;52.806;18.268;2023-02-01T13:48:50;6.13;;;2.25;;
55497;SDS011;41357;52.806;18.268;2023-02-01T13:54:02;13.70;;;3.58;;
55497;SDS011;41357;52.806;18.268;2023-02-01T13:56:32;9.25;;;2.72;;
55497;SDS011;41357;52.806;18.268;2023-02-01T13:59:35;8.18;;;2.17;;
55497;SDS011;41357;52.806;18.268;2023-02-01T14:01:50;9.52;;;2.45;;
55497;SDS011;41357;52.806;18.268;2023-02-01T14:07:01;6.47;;;2.65;;
55497;SDS011;41357;52.806;18.268;2023-02-01T14:09:34;9.75;;;3.13;;
55497;SDS011;41357;52.806;18.268;2023-02-01T14:14:50;7.13;;;2.65;;
55497;SDS011;41357;52.806;18.268;2023-02-01T14:19:48;9.35;;;3.58;;
55497;SDS011;41357;52.806;18.268;2023-02-01T14:24:40;10.95;;;3.25;;
55497;SDS011;41357;52.806;18.268;2023-02-01T14:29:42;5.18;;;1.88;;
55497;SDS011;41357;52.806;18.268;2023-02-01T14:32:21;10.57;;;1.98;;
55497;SDS011;41357;52.806;18.268;2023-02-01T14:42:25;9.18;;;2.10;;
55497;SDS011;41357;52.806;18.268;2023-02-01T14:44:53;6.60;;;3.13;;
55497;SDS011;41357;52.806;18.268;2023-02-01T14:52:22;11.20;;;3.65;;
55497;SDS011;41357;52.806;18.268;2023-02-01T14:54:51;7.18;;;2.25;;
55497;SDS011;41357;52.806;18.268;2023-02-01T14:57:18;6.80;;;3.47;;
55497;SDS011;41357;52.806;18.268;2023-02-01T14:59:46;11.32;;;3.70;;
55497;SDS011;41357;52.806;18.268;2023-02-01T15:02:23;8.82;;;2.20;;
55497;SDS011;41357;52.806;18.268;2023-02-01T15:04:55;10.00;;;3.78;;
55497;SDS011;41357;52.806;18.268;2023-02-01T15:07:22;12.35;;;2.90;;
55497;SDS011;41357;52.806;18.268;2023-02-01T15:09:49;10.35;;;4.07;;
55497;SDS011;41357;52.806;18.268;2023-02-01T15:12:17;11.23;;;4.05;;
55497;SDS011;41357;52.806;18.268;2023-02-01T15:15:02;8.23;;;2.67;;
55497;SDS011;41357;52.806;18.268;2023-02-01T15:17:30;6.45;;;2.45;;
55497;SDS011;41357;52.806;18.268;2023-02-01T15:19:59;10.02;;;3.97;;
55497;SDS011;41357;52.806;18.268;2023-02-01T15:22:27;9.48;;;2.95;;
55497;SDS011;41357;52.806;18.268;2023-02-01T15:24:53;11.00;;;3.30;;
55497;SDS011;41357;52.806;18.268;2023-02-01T15:27:20;24.90;;;5.88;;
55497;SDS011;41357;52.806;18.268;2023-02-01T15:29:46;13.60;;;4.95;;
55497;SDS011;41357;52.806;18.268;2023-02-01T15:34:57;7.97;;;3.10;;
55497;SDS011;41357;52.806;18.268;2023-02-01T15:37:25;19.52;;;5.40;;
55497;SDS011;41357;52.806;18.268;2023-02-01T15:42:30;12.32;;;4.15;;
55497;SDS011;41357;52.806;18.268;2023-02-01T15:44:56;8.95;;;2.92;;
55497;SDS011;41357;52.806;18.268;2023-02-01T15:47:26;8.02;;;1.92;;
55497;SDS011;41357;52.806;18.268;2023-02-01T15:49:54;8.20;;;2.63;;
55497;SDS011;41357;52.806;18.268;2023-02-01T15:52:26;6.45;;;2.25;;
55497;SDS011;41357;52.806;18.268;2023-02-01T15:54:56;5.43;;;2.25;;
55497;SDS011;41357;52.806;18.268;2023-02-01T15:57:26;4.90;;;1.95;;
55497;SDS011;41357;52.806;18.268;2023-02-01T16:00:06;6.43;;;1.13;;
55497;SDS011;41357;52.806;18.268;2023-02-01T16:08:23;5.30;;;2.17;;
55497;SDS011;41357;52.806;18.268;2023-02-01T16:10:51;13.27;;;1.90;;
55497;SDS011;41357;52.806;18.268;2023-02-01T16:13:18;6.55;;;2.33;;
55497;SDS011;41357;52.806;18.268;2023-02-01T16:15:45;7.80;;;2.80;;
55497;SDS011;41357;52.806;18.268;2023-02-01T16:18:11;5.03;;;2.05;;
55497;SDS011;41357;52.806;18.268;2023-02-01T16:20:38;20.02;;;5.55;;
55497;SDS011;41357;52.806;18.268;2023-02-01T16:23:05;13.40;;;2.97;;
55497;SDS011;41357;52.806;18.268;2023-02-01T16:25:31;5.82;;;2.03;;
55497;SDS011;41357;52.806;18.268;2023-02-01T16:27:57;9.40;;;2.30;;
55497;SDS011;41357;52.806;18.268;2023-02-01T16:30:23;6.55;;;2.08;;
55497;SDS011;41357;52.806;18.268;2023-02-01T16:32:54;10.20;;;3.13;;
55497;SDS011;41357;52.806;18.268;2023-02-01T16:35:22;12.02;;;2.92;;
55497;SDS011;41357;52.806;18.268;2023-02-01T16:37:49;4.28;;;1.35;;
55497;SDS011;41357;52.806;18.268;2023-02-01T16:40:15;2.53;;;0.98;;
55497;SDS011;41357;52.806;18.268;2023-02-01T16:42:42;13.35;;;2.60;;
55497;SDS011;41357;52.806;18.268;2023-02-01T16:45:09;10.23;;;2.05;;
55497;SDS011;41357;52.806;18.268;2023-02-01T16:47:36;9.48;;;2.80;;
55497;SDS011;41357;52.806;18.268;2023-02-01T16:50:03;5.00;;;1.75;;
55497;SDS011;41357;52.806;18.268;2023-02-01T16:52:31;13.85;;;2.45;;
55497;SDS011;41357;52.806;18.268;2023-02-01T16:54:57;7.40;;;2.72;;
55497;SDS011;41357;52.806;18.268;2023-02-01T16:57:23;7.00;;;3.03;;
55497;SDS011;41357;52.806;18.268;2023-02-01T16:59:52;10.93;;;3.15;;
55497;SDS011;41357;52.806;18.268;2023-02-01T17:02:19;11.45;;;2.85;;
55497;SDS011;41357;52.806;18.268;2023-02-01T17:04:46;13.45;;;4.10;;
55497;SDS011;41357;52.806;18.268;2023-02-01T17:07:17;10.73;;;4.15;;
55497;SDS011;41357;52.806;18.268;2023-02-01T17:09:44;7.07;;;2.92;;
55497;SDS011;41357;52.806;18.268;2023-02-01T17:14:55;10.45;;;3.70;;
55497;SDS011;41357;52.806;18.268;2023-02-01T17:17:22;13.57;;;3.30;;
55497;SDS011;41357;52.806;18.268;2023-02-01T17:19:50;14.10;;;4.22;;
55497;SDS011;41357;52.806;18.268;2023-02-01T17:22:19;13.55;;;3.65;;
55497;SDS011;41357;52.806;18.268;2023-02-01T17:24:45;23.55;;;7.00;;
55497;SDS011;41357;52.806;18.268;2023-02-01T17:27:11;22.88;;;5.15;;
55497;SDS011;41357;52.806;18.268;2023-02-01T17:29:38;18.42;;;4.80;;
55497;SDS011;41357;52.806;18.268;2023-02-01T17:32:05;12.63;;;4.78;;
55497;SDS011;41357;52.806;18.268;2023-02-01T17:34:31;10.52;;;3.20;;
55497;SDS011;41357;52.806;18.268;2023-02-01T17:36:57;10.48;;;3.38;;
55497;SDS011;41357;52.806;18.268;2023-02-01T17:39:23;12.63;;;4.38;;
55497;SDS011;41357;52.806;18.268;2023-02-01T17:42:10;19.48;;;3.80;;